KPOE/POE METAR and TAF weather

Enter ICAO airport designator
Station Type Date Time Source
KPOE METAR 2021/09/28 04:58 UTC NOAA

KPOE 280458Z AUTO 16007KT 10SM BKN019 24/23 A2997 RMK AO2 SLP148 T02440230


Station Type Date Time Source
KPOE Decoded METAR 2021/09/28 04:58 UTC NOAA

Fort Polk, Polk AAF Ft Polk, LA, United States (KPOE) 31-03N 093-11-38W
Sep 28, 2021 - 12:58 AM EDT / 2021.09.28 0458 UTC
Wind: from the SSE (160 degrees) at 8 MPH (7 KT):0
Visibility: 10 mile(s):0
Sky conditions: mostly cloudy
Temperature: 75.9 F (24.4 C)
Dew Point: 73.4 F (23.0 C)
Relative Humidity: 91%
Pressure (altimeter): 29.97 in. Hg (1014 hPa)
ob: KPOE 280458Z AUTO 16007KT 10SM BKN019 24/23 A2997 RMK AO2 SLP148 T02440230
cycle: 5

Station Type Date Time Source
KPOE TAF 2021/09/28 00:05 UTC NOAA

TAF KPOE 280000Z 2800/2906 14005KT 9999 BKN050 QNH2995INS
BECMG 2804/2805 14005KT 8000 BR OVC015 QNH2995INS
BECMG 2806/2807 14005KT 4800 -SHRA BR OVC005 QNH2995INS
BECMG 2814/2815 15005KT 9999 NSW SCT015 QNH2989INS
BECMG 2817/2818 15006KT 9999 VCSH BKN020 QNH2990INS
TEMPO 2819/2823 18010G15KT 6000 -TSRA SCT010 BKN025CB
BECMG 2823/2824 18005KT 9999 NSW BKN025 QNH2990INS TX30/2820Z TN21/2812Z

Example: see airport list